Time;durP1;ratioP1;P1;durP2;ratioP2;P2;SDS_P1;SDS_P2;PMS_P1;PMS_P2;Temp;Humidity;BMP_temperature;BMP_pressure;BME280_temperature;BME280_humidity;BME280_pressure;Samples;Min_cycle;Max_cycle;Signal;HPM_P1;HPM_P2
2022/11/12 00:01:05;;;;;;;109.68;87.53;;;;;;;;;;5074940;28;20054;-75
2022/11/12 00:03:31;;;;;;;100.25;80.20;;;;;;;;;;5075602;28;20020;-76
2022/11/12 00:05:56;;;;;;;96.65;78.25;;;;;;;;;;5075964;28;20733;-74
2022/11/12 00:08:21;;;;;;;99.80;84.30;;;;;;;;;;5076730;28;20024;-73
2022/11/12 00:10:47;;;;;;;123.70;100.43;;;;;;;;;;5079688;28;20099;-78
2022/11/12 00:13:12;;;;;;;146.57;110.53;;;;;;;;;;5062914;28;20032;-79
2022/11/12 00:15:38;;;;;;;132.00;101.07;;;;;;;;;;5072799;28;20515;-75
2022/11/12 00:18:03;;;;;;;129.73;104.85;;;;;;;;;;5071647;28;20175;-78
2022/11/12 00:20:29;;;;;;;134.40;103.18;;;;;;;;;;5081971;28;20028;-75
2022/11/12 00:22:54;;;;;;;133.57;102.10;;;;;;;;;;5078688;28;20047;-75
2022/11/12 00:25:19;;;;;;;150.13;109.65;;;;;;;;;;5080466;28;20163;-75
2022/11/12 00:27:45;;;;;;;145.38;107.22;;;;;;;;;;5075778;28;20031;-76
2022/11/12 00:30:11;;;;;;;139.45;104.13;;;;;;;;;;5076395;28;20031;-75
2022/11/12 00:32:36;;;;;;;131.55;103.57;;;;;;;;;;5069553;28;20032;-76
2022/11/12 00:35:02;;;;;;;185.20;130.15;;;;;;;;;;5080597;28;20343;-76
2022/11/12 00:37:28;;;;;;;181.50;133.38;;;;;;;;;;5078354;28;20052;-76
2022/11/12 00:39:53;;;;;;;159.68;122.20;;;;;;;;;;5081714;28;20066;-75
2022/11/12 00:42:18;;;;;;;157.90;118.95;;;;;;;;;;5081141;28;21202;-77
2022/11/12 00:44:44;;;;;;;154.80;113.20;;;;;;;;;;5079233;28;20070;-75
2022/11/12 00:47:09;;;;;;;109.18;83.95;;;;;;;;;;5067851;28;20059;-74
2022/11/12 00:49:34;;;;;;;109.07;83.18;;;;;;;;;;5081562;28;20020;-75
2022/11/12 00:52:00;;;;;;;134.13;95.40;;;;;;;;;;5072849;28;20016;-75
2022/11/12 00:54:25;;;;;;;155.68;104.32;;;;;;;;;;5076401;28;20093;-81
2022/11/12 00:56:50;;;;;;;187.57;123.80;;;;;;;;;;5081702;28;20050;-77
2022/11/12 00:59:16;;;;;;;151.05;105.32;;;;;;;;;;5071045;28;20115;-76
2022/11/12 01:01:41;;;;;;;138.20;96.07;;;;;;;;;;5077561;28;20032;-78
2022/11/12 01:04:07;;;;;;;125.55;91.82;;;;;;;;;;5080619;28;20099;-77
2022/11/12 01:06:32;;;;;;;140.75;100.20;;;;;;;;;;5080522;28;20028;-77
2022/11/12 01:08:57;;;;;;;126.30;92.43;;;;;;;;;;5082123;28;20104;-76
2022/11/12 01:11:24;;;;;;;130.63;96.90;;;;;;;;;;5082941;28;20130;-77
2022/11/12 01:14:00;;;;;;;117.32;84.35;;;;;;;;;;5081155;28;20488;-78
2022/11/12 01:16:28;;;;;;;110.70;82.15;;;;;;;;;;5071299;28;20024;-77
2022/11/12 01:18:55;;;;;;;118.53;89.28;;;;;;;;;;5080422;28;20052;-78
2022/11/12 01:21:20;;;;;;;132.80;94.28;;;;;;;;;;5085202;28;20074;-76
2022/11/12 01:23:46;;;;;;;127.47;97.35;;;;;;;;;;5083127;28;20063;-77
2022/11/12 01:26:15;;;;;;;129.55;99.97;;;;;;;;;;5086049;28;20347;-75
2022/11/12 01:28:41;;;;;;;134.43;101.70;;;;;;;;;;5085335;28;20031;-75
2022/11/12 01:31:26;;;;;;;151.80;110.43;;;;;;;;;;5074329;28;20035;-76
2022/11/12 01:33:52;;;;;;;172.75;127.28;;;;;;;;;;5085439;28;20028;-80
2022/11/12 01:36:18;;;;;;;154.52;115.95;;;;;;;;;;5085517;28;20369;-76
2022/11/12 01:38:44;;;;;;;132.60;98.00;;;;;;;;;;5084651;28;20203;-78
2022/11/12 01:41:12;;;;;;;135.32;101.63;;;;;;;;;;5085351;28;20414;-76
2022/11/12 01:43:37;;;;;;;124.78;93.20;;;;;;;;;;5072861;28;20016;-77
2022/11/12 01:46:23;;;;;;;122.43;90.55;;;;;;;;;;5084580;28;20069;-77
2022/11/12 01:48:51;;;;;;;124.03;90.70;;;;;;;;;;5084371;28;20044;-75
2022/11/12 01:51:18;;;;;;;126.05;92.97;;;;;;;;;;5083912;28;20489;-79
2022/11/12 01:53:45;;;;;;;134.07;99.55;;;;;;;;;;5083616;28;20024;-76
2022/11/12 01:56:11;;;;;;;129.95;95.95;;;;;;;;;;5085148;28;20506;-76
2022/11/12 01:58:37;;;;;;;139.40;100.97;;;;;;;;;;5083412;28;20115;-78
2022/11/12 02:01:03;;;;;;;184.25;125.03;;;;;;;;;;5085352;28;20032;-76
2022/11/12 02:03:28;;;;;;;194.90;132.75;;;;;;;;;;5083205;28;20024;-75
2022/11/12 02:05:56;;;;;;;166.60;115.78;;;;;;;;;;5084238;28;20027;-76
2022/11/12 02:08:23;;;;;;;149.77;105.00;;;;;;;;;;5085360;28;20419;-76
2022/11/12 02:10:49;;;;;;;156.73;114.20;;;;;;;;;;5085662;28;20028;-76
2022/11/12 02:15:59;;;;;;;160.65;117.85;;;;;;;;;;5083243;28;20082;-77
2022/11/12 02:18:24;;;;;;;145.65;112.53;;;;;;;;;;5065850;28;20079;-77
2022/11/12 02:20:56;;;;;;;145.02;113.97;;;;;;;;;;5073508;28;20032;-78
2022/11/12 02:23:23;;;;;;;138.63;111.70;;;;;;;;;;5083539;28;20533;-76
2022/11/12 02:25:48;;;;;;;152.02;113.50;;;;;;;;;;5083990;28;20033;-76
2022/11/12 02:28:14;;;;;;;127.22;102.95;;;;;;;;;;5083501;28;20038;-75
2022/11/12 02:30:41;;;;;;;104.47;82.50;;;;;;;;;;5083411;28;20064;-77
2022/11/12 02:33:07;;;;;;;97.10;73.85;;;;;;;;;;5083728;28;20028;-76
2022/11/12 02:35:32;;;;;;;70.63;56.70;;;;;;;;;;5084655;28;20020;-76
2022/11/12 02:37:57;;;;;;;68.57;54.78;;;;;;;;;;5085358;28;20427;-76
2022/11/12 02:40:23;;;;;;;84.45;67.07;;;;;;;;;;5082242;28;20043;-76
2022/11/12 02:42:48;;;;;;;68.22;59.20;;;;;;;;;;5082582;28;21761;-77
2022/11/12 02:45:14;;;;;;;59.72;46.70;;;;;;;;;;5083078;28;20431;-76
2022/11/12 02:47:40;;;;;;;56.08;46.65;;;;;;;;;;5083505;28;20046;-77
2022/11/12 02:50:05;;;;;;;58.88;48.03;;;;;;;;;;5073600;28;20059;-77
2022/11/12 02:52:31;;;;;;;63.42;52.13;;;;;;;;;;5076137;28;20039;-77
2022/11/12 02:54:57;;;;;;;69.30;56.13;;;;;;;;;;5082480;28;20019;-76
2022/11/12 02:57:22;;;;;;;68.53;60.58;;;;;;;;;;5084069;28;20038;-77
2022/11/12 02:59:47;;;;;;;71.70;58.65;;;;;;;;;;5081857;28;20020;-76
2022/11/12 03:02:13;;;;;;;62.90;52.28;;;;;;;;;;5079965;28;20032;-76
2022/11/12 03:04:38;;;;;;;58.83;48.47;;;;;;;;;;5073524;28;20107;-77
2022/11/12 03:07:03;;;;;;;58.38;47.70;;;;;;;;;;5082636;28;20028;-76
2022/11/12 03:09:29;;;;;;;71.03;55.95;;;;;;;;;;5084189;28;20028;-76
2022/11/12 03:11:54;;;;;;;72.03;55.85;;;;;;;;;;5082678;28;21904;-77
2022/11/12 03:14:19;;;;;;;69.55;57.08;;;;;;;;;;5082142;28;20036;-77
2022/11/12 03:16:45;;;;;;;76.65;57.83;;;;;;;;;;5084034;28;20024;-77
2022/11/12 03:19:10;;;;;;;64.53;53.67;;;;;;;;;;5083356;28;20806;-77
2022/11/12 03:21:36;;;;;;;72.80;61.17;;;;;;;;;;5081897;28;21001;-77
2022/11/12 03:24:01;;;;;;;71.43;58.30;;;;;;;;;;5071534;28;20028;-77
2022/11/12 03:26:26;;;;;;;73.25;59.83;;;;;;;;;;5080433;28;20512;-76
2022/11/12 03:28:52;;;;;;;74.70;63.58;;;;;;;;;;5081476;28;20956;-75
2022/11/12 03:31:17;;;;;;;68.18;56.03;;;;;;;;;;5082859;28;20032;-78
2022/11/12 03:33:43;;;;;;;68.70;58.05;;;;;;;;;;5083198;28;20079;-78
2022/11/12 03:36:08;;;;;;;76.95;63.47;;;;;;;;;;5083211;28;20609;-78
2022/11/12 03:38:34;;;;;;;68.32;54.55;;;;;;;;;;5082582;28;20024;-77
2022/11/12 03:40:59;;;;;;;64.55;53.03;;;;;;;;;;5080669;28;20031;-77
2022/11/12 03:43:24;;;;;;;62.72;51.55;;;;;;;;;;5081648;28;20107;-75
2022/11/12 03:45:50;;;;;;;72.57;56.95;;;;;;;;;;5081875;28;20081;-77
2022/11/12 03:48:15;;;;;;;68.47;55.95;;;;;;;;;;5082783;28;20040;-76
2022/11/12 03:50:41;;;;;;;74.32;60.78;;;;;;;;;;5081447;28;20032;-75
2022/11/12 03:53:06;;;;;;;70.93;58.00;;;;;;;;;;5081624;28;20020;-77
2022/11/12 03:55:32;;;;;;;67.53;54.28;;;;;;;;;;5083034;28;20016;-78
2022/11/12 03:57:58;;;;;;;79.00;65.60;;;;;;;;;;5079519;28;20608;-78
2022/11/12 04:00:25;;;;;;;79.55;66.13;;;;;;;;;;5080853;28;20104;-77
2022/11/12 04:02:50;;;;;;;75.07;62.42;;;;;;;;;;5081369;28;20023;-76
2022/11/12 04:10:45;;;;;;;92.07;79.25;;;;;;;;;;5081905;28;20092;-77
2022/11/12 04:13:28;;;;;;;82.18;69.20;;;;;;;;;;5078242;28;20032;-77
2022/11/12 04:26:59;;;;;;;70.93;58.83;;;;;;;;;;5081706;28;20039;-76
2022/11/12 04:32:08;;;;;;;76.00;62.03;;;;;;;;;;5079579;28;20046;-76
2022/11/12 04:34:34;;;;;;;69.75;57.25;;;;;;;;;;5081582;28;20028;-78
2022/11/12 04:37:03;;;;;;;70.03;55.15;;;;;;;;;;5080979;28;20531;-77
2022/11/12 04:39:28;;;;;;;67.38;54.08;;;;;;;;;;5081587;28;20035;-76
2022/11/12 04:47:22;;;;;;;70.90;56.25;;;;;;;;;;5065036;28;20116;-76
2022/11/12 04:49:47;;;;;;;71.85;57.83;;;;;;;;;;5073943;28;20446;-76
2022/11/12 04:52:12;;;;;;;82.18;66.80;;;;;;;;;;5070471;28;20028;-75
2022/11/12 04:54:38;;;;;;;77.93;66.18;;;;;;;;;;5075330;28;20024;-75
2022/11/12 04:57:03;;;;;;;96.50;77.82;;;;;;;;;;5080140;28;20118;-75
2022/11/12 04:59:28;;;;;;;86.95;69.18;;;;;;;;;;5080433;28;20024;-77
2022/11/12 05:01:54;;;;;;;79.60;68.15;;;;;;;;;;5082139;28;20031;-76
2022/11/12 05:04:19;;;;;;;79.20;63.13;;;;;;;;;;5081767;28;20032;-77
2022/11/12 05:06:50;;;;;;;76.47;60.45;;;;;;;;;;5081340;28;20107;-76
2022/11/12 05:09:16;;;;;;;75.03;57.55;;;;;;;;;;5081635;28;20023;-77
2022/11/12 05:11:41;;;;;;;64.05;52.20;;;;;;;;;;5081094;28;20035;-76
2022/11/12 05:14:07;;;;;;;66.80;51.95;;;;;;;;;;5078307;28;20115;-75
2022/11/12 05:16:32;;;;;;;74.47;57.63;;;;;;;;;;5068590;28;20394;-76
2022/11/12 05:18:57;;;;;;;62.38;51.38;;;;;;;;;;5066065;28;20043;-76
2022/11/12 05:24:06;;;;;;;69.05;54.90;;;;;;;;;;5067738;28;20076;-76
2022/11/12 05:26:32;;;;;;;69.95;56.97;;;;;;;;;;5080401;28;20103;-75
2022/11/12 05:28:57;;;;;;;71.82;58.03;;;;;;;;;;5080518;28;20035;-76
2022/11/12 05:31:23;;;;;;;74.90;58.50;;;;;;;;;;5081166;28;20454;-75
2022/11/12 05:33:48;;;;;;;82.80;61.28;;;;;;;;;;5080782;28;20651;-77
2022/11/12 05:36:13;;;;;;;80.10;61.78;;;;;;;;;;5079708;28;20031;-77
2022/11/12 05:38:39;;;;;;;128.48;83.15;;;;;;;;;;5081044;28;20031;-76
2022/11/12 05:41:04;;;;;;;132.25;86.22;;;;;;;;;;5074375;28;20031;-75
2022/11/12 05:43:29;;;;;;;76.78;60.13;;;;;;;;;;5070799;28;20040;-75
2022/11/12 05:45:55;;;;;;;79.35;59.05;;;;;;;;;;5080664;28;20028;-76
2022/11/12 05:48:20;;;;;;;157.02;116.32;;;;;;;;;;5079000;28;20038;-77
2022/11/12 05:50:49;;;;;;;108.35;82.38;;;;;;;;;;5069948;28;20137;-76
2022/11/12 05:53:15;;;;;;;86.72;67.18;;;;;;;;;;5081614;28;20036;-77
2022/11/12 05:55:40;;;;;;;100.25;79.07;;;;;;;;;;5081152;28;20454;-76
2022/11/12 05:58:05;;;;;;;99.63;79.85;;;;;;;;;;5081047;28;20454;-81
2022/11/12 06:00:37;;;;;;;94.13;74.93;;;;;;;;;;5084595;28;20332;-77
2022/11/12 06:03:03;;;;;;;72.50;57.95;;;;;;;;;;5073330;28;20024;-78
2022/11/12 06:05:28;;;;;;;87.43;67.78;;;;;;;;;;5082591;28;20363;-78
2022/11/12 06:07:53;;;;;;;119.28;87.88;;;;;;;;;;5083823;28;20020;-76
2022/11/12 06:10:19;;;;;;;130.55;92.07;;;;;;;;;;5082589;28;20427;-77
2022/11/12 06:12:44;;;;;;;98.65;72.88;;;;;;;;;;5084903;28;20514;-77
2022/11/12 06:15:09;;;;;;;94.90;67.82;;;;;;;;;;5083862;28;20416;-77
2022/11/12 06:17:35;;;;;;;81.97;61.53;;;;;;;;;;5081225;28;20040;-76
2022/11/12 06:20:00;;;;;;;71.43;54.17;;;;;;;;;;5079472;28;20121;-77
2022/11/12 06:22:25;;;;;;;60.55;47.42;;;;;;;;;;5070266;28;20089;-75
2022/11/12 06:24:51;;;;;;;57.88;46.05;;;;;;;;;;5070831;28;20043;-76
2022/11/12 06:27:16;;;;;;;58.85;45.85;;;;;;;;;;5070593;28;20024;-74
2022/11/12 06:29:42;;;;;;;64.85;48.08;;;;;;;;;;5069651;28;20024;-76
2022/11/12 06:32:07;;;;;;;62.50;50.67;;;;;;;;;;5077733;28;20035;-77
2022/11/12 06:34:32;;;;;;;63.38;48.92;;;;;;;;;;5063436;28;20023;-78
2022/11/12 06:36:58;;;;;;;67.20;55.15;;;;;;;;;;5083146;28;20043;-78
2022/11/12 06:39:23;;;;;;;65.70;53.70;;;;;;;;;;5083362;28;20028;-78
2022/11/12 06:41:49;;;;;;;121.78;82.95;;;;;;;;;;5083715;28;20071;-77
2022/11/12 06:44:15;;;;;;;219.57;121.53;;;;;;;;;;5072995;28;20444;-78
2022/11/12 06:46:40;;;;;;;78.13;58.58;;;;;;;;;;5081448;28;20035;-77
2022/11/12 06:49:05;;;;;;;127.15;81.18;;;;;;;;;;5083065;28;20029;-77
2022/11/12 06:51:31;;;;;;;74.07;60.90;;;;;;;;;;5082919;28;20039;-77
2022/11/12 06:53:56;;;;;;;69.30;54.47;;;;;;;;;;5073424;28;20735;-77
2022/11/12 06:56:21;;;;;;;79.50;62.85;;;;;;;;;;5079271;28;20031;-72
2022/11/12 06:58:47;;;;;;;85.80;71.55;;;;;;;;;;5079239;28;20060;-74
2022/11/12 07:01:13;;;;;;;114.80;90.70;;;;;;;;;;5072822;28;20039;-72
2022/11/12 07:03:39;;;;;;;94.05;76.75;;;;;;;;;;5083880;28;20103;-76
2022/11/12 07:06:06;;;;;;;232.23;122.45;;;;;;;;;;5083604;28;20111;-77
2022/11/12 07:08:31;;;;;;;112.10;79.22;;;;;;;;;;5082008;28;20043;-78
2022/11/12 07:10:57;;;;;;;106.40;75.68;;;;;;;;;;5082479;28;20035;-74
2022/11/12 07:13:22;;;;;;;81.32;67.70;;;;;;;;;;5074066;28;20020;-71
2022/11/12 07:15:48;;;;;;;86.35;69.88;;;;;;;;;;5077747;28;20051;-72
2022/11/12 07:18:13;;;;;;;80.47;62.70;;;;;;;;;;5083981;28;21031;-74
2022/11/12 07:20:38;;;;;;;133.85;84.97;;;;;;;;;;5080692;28;20768;-72
2022/11/12 07:23:04;;;;;;;86.68;69.60;;;;;;;;;;5068029;28;20379;-73
2022/11/12 07:25:29;;;;;;;66.25;52.90;;;;;;;;;;5074061;28;20035;-77
2022/11/12 07:27:54;;;;;;;75.53;61.58;;;;;;;;;;5078178;28;20147;-79
2022/11/12 07:30:20;;;;;;;68.10;59.33;;;;;;;;;;5068507;28;20063;-73
2022/11/12 07:32:45;;;;;;;63.90;51.63;;;;;;;;;;5069576;28;20044;-78
2022/11/12 07:35:11;;;;;;;59.03;52.00;;;;;;;;;;5067774;28;20026;-74
2022/11/12 07:37:36;;;;;;;62.38;54.50;;;;;;;;;;5067337;28;20028;-70
2022/11/12 07:40:02;;;;;;;59.83;52.55;;;;;;;;;;5079262;28;20055;-75
2022/11/12 07:42:28;;;;;;;62.05;52.72;;;;;;;;;;5083503;28;20028;-71
2022/11/12 07:44:53;;;;;;;54.10;48.13;;;;;;;;;;5080682;28;20031;-73
2022/11/12 07:47:19;;;;;;;50.10;42.97;;;;;;;;;;5082878;28;20028;-73
2022/11/12 07:49:44;;;;;;;138.77;81.82;;;;;;;;;;5071015;28;20385;-74
2022/11/12 07:52:09;;;;;;;99.32;84.28;;;;;;;;;;5066544;28;20447;-73
2022/11/12 07:54:35;;;;;;;64.80;53.83;;;;;;;;;;5073222;28;20038;-72
2022/11/12 07:57:00;;;;;;;70.72;55.42;;;;;;;;;;5072851;28;20081;-71
2022/11/12 07:59:25;;;;;;;43.90;37.75;;;;;;;;;;5078073;28;20032;-71
2022/11/12 08:01:51;;;;;;;96.68;59.83;;;;;;;;;;5080880;28;20032;-71
2022/11/12 08:04:16;;;;;;;236.85;108.30;;;;;;;;;;5081870;28;20044;-73
2022/11/12 08:06:42;;;;;;;147.93;88.60;;;;;;;;;;5069588;28;20030;-70
2022/11/12 08:09:07;;;;;;;160.70;93.03;;;;;;;;;;5070615;28;20042;-76
2022/11/12 08:11:33;;;;;;;52.47;42.20;;;;;;;;;;5082159;28;20059;-71
2022/11/12 08:13:58;;;;;;;46.55;41.50;;;;;;;;;;5080816;28;20059;-77
2022/11/12 08:16:23;;;;;;;61.08;54.55;;;;;;;;;;5080416;28;20094;-71
2022/11/12 08:18:49;;;;;;;55.90;49.80;;;;;;;;;;5065508;28;20437;-72
2022/11/12 08:21:15;;;;;;;55.15;49.10;;;;;;;;;;5079808;28;20097;-69
2022/11/12 08:23:40;;;;;;;48.15;42.95;;;;;;;;;;5080809;28;20024;-71
2022/11/12 08:26:07;;;;;;;101.47;67.30;;;;;;;;;;5077830;28;20382;-70
2022/11/12 08:28:33;;;;;;;67.75;49.53;;;;;;;;;;5079491;28;20055;-71
2022/11/12 08:31:06;;;;;;;65.80;51.95;;;;;;;;;;5080034;28;20455;-70
2022/11/12 08:33:31;;;;;;;61.20;50.28;;;;;;;;;;5079592;28;20063;-71
2022/11/12 08:35:57;;;;;;;57.05;47.78;;;;;;;;;;5081488;28;20051;-70
2022/11/12 08:38:22;;;;;;;62.00;52.67;;;;;;;;;;5081391;28;20016;-71
2022/11/12 08:40:48;;;;;;;56.30;50.08;;;;;;;;;;5082046;28;20063;-76
2022/11/12 08:43:13;;;;;;;73.10;60.50;;;;;;;;;;5067950;28;20647;-74
2022/11/12 08:45:40;;;;;;;56.65;50.55;;;;;;;;;;5081285;28;20055;-71
2022/11/12 08:48:07;;;;;;;69.28;52.78;;;;;;;;;;5079355;28;20148;-70
2022/11/12 08:50:33;;;;;;;53.33;44.45;;;;;;;;;;5081455;28;20375;-72
2022/11/12 08:52:59;;;;;;;146.50;95.28;;;;;;;;;;5081124;28;20026;-71
2022/11/12 08:55:25;;;;;;;107.38;90.57;;;;;;;;;;5081518;28;20028;-71
2022/11/12 08:57:50;;;;;;;53.88;48.17;;;;;;;;;;5081001;28;20040;-70
2022/11/12 09:00:15;;;;;;;50.75;44.17;;;;;;;;;;5078069;28;20063;-73
2022/11/12 09:02:41;;;;;;;38.45;34.10;;;;;;;;;;5081784;28;20097;-70
2022/11/12 09:05:06;;;;;;;34.15;30.55;;;;;;;;;;5081733;28;20128;-71
2022/11/12 09:07:32;;;;;;;34.47;30.75;;;;;;;;;;5078088;28;20032;-70
2022/11/12 09:09:57;;;;;;;57.47;48.70;;;;;;;;;;5081702;28;20020;-74
2022/11/12 09:12:23;;;;;;;76.25;59.92;;;;;;;;;;5080757;28;20063;-70
2022/11/12 09:14:48;;;;;;;15.68;13.93;;;;;;;;;;5081665;28;20463;-76
2022/11/12 09:17:13;;;;;;;23.30;17.88;;;;;;;;;;5080710;28;20035;-73
2022/11/12 09:19:39;;;;;;;87.78;57.00;;;;;;;;;;5082158;28;20035;-71
2022/11/12 09:22:04;;;;;;;25.88;19.95;;;;;;;;;;5081183;28;20036;-70
2022/11/12 09:24:29;;;;;;;45.33;29.85;;;;;;;;;;5080605;28;20329;-69
2022/11/12 09:26:55;;;;;;;32.75;22.73;;;;;;;;;;5079958;28;20024;-71
2022/11/12 09:29:20;;;;;;;43.53;33.60;;;;;;;;;;5080689;28;20166;-70
2022/11/12 09:31:45;;;;;;;22.42;19.23;;;;;;;;;;5081701;28;20059;-71
2022/11/12 09:34:11;;;;;;;35.90;29.88;;;;;;;;;;5084756;28;20054;-76
2022/11/12 09:36:36;;;;;;;20.30;18.10;;;;;;;;;;5085751;28;20398;-73
2022/11/12 09:39:02;;;;;;;20.60;17.45;;;;;;;;;;5086022;28;20016;-70
2022/11/12 09:41:37;;;;;;;28.75;22.63;;;;;;;;;;5084546;28;21177;-70
2022/11/12 09:44:19;;;;;;;25.92;23.05;;;;;;;;;;5085159;28;20028;-69
2022/11/12 09:46:48;;;;;;;16.60;14.90;;;;;;;;;;5085136;28;20024;-72
2022/11/12 09:49:15;;;;;;;30.23;20.67;;;;;;;;;;5084363;28;20032;-71
2022/11/12 09:51:55;;;;;;;55.97;38.60;;;;;;;;;;5084930;28;20520;-69
2022/11/12 09:54:22;;;;;;;19.77;17.30;;;;;;;;;;5083727;28;20462;-74
2022/11/12 09:56:48;;;;;;;32.80;27.65;;;;;;;;;;5084210;28;20031;-72
2022/11/12 09:59:14;;;;;;;15.68;13.77;;;;;;;;;;5083400;28;20095;-73
2022/11/12 10:01:58;;;;;;;40.10;28.85;;;;;;;;;;5081228;28;20024;-73
2022/11/12 10:04:23;;;;;;;24.50;20.85;;;;;;;;;;5084274;28;20031;-74
2022/11/12 10:07:05;;;;;;;28.17;23.75;;;;;;;;;;5085097;28;20035;-71
2022/11/12 10:09:40;;;;;;;26.48;22.65;;;;;;;;;;5084161;28;20024;-75
2022/11/12 10:14:55;;;;;;;27.52;24.10;;;;;;;;;;5082878;28;20124;-70
2022/11/12 10:17:42;;;;;;;94.97;70.05;;;;;;;;;;5083790;28;20066;-74
2022/11/12 10:20:19;;;;;;;153.60;106.13;;;;;;;;;;5083229;28;20501;-73
2022/11/12 10:22:44;;;;;;;69.35;46.80;;;;;;;;;;5083643;28;20036;-72
2022/11/12 10:25:14;;;;;;;40.80;31.45;;;;;;;;;;5085019;28;20026;-70
2022/11/12 10:27:40;;;;;;;31.55;26.85;;;;;;;;;;5081914;28;20123;-69
2022/11/12 10:30:12;;;;;;;38.15;32.58;;;;;;;;;;5084121;28;20115;-70
2022/11/12 10:32:41;;;;;;;27.63;24.83;;;;;;;;;;5083120;28;20032;-73
2022/11/12 10:35:06;;;;;;;24.83;22.30;;;;;;;;;;5082644;28;20395;-70
2022/11/12 10:37:32;;;;;;;27.30;23.67;;;;;;;;;;5082129;28;20598;-71
2022/11/12 10:39:58;;;;;;;17.60;15.75;;;;;;;;;;5084323;28;20030;-70
2022/11/12 10:42:23;;;;;;;14.00;12.15;;;;;;;;;;5083053;28;20032;-73
2022/11/12 10:44:50;;;;;;;14.02;12.52;;;;;;;;;;5083065;28;20097;-70
2022/11/12 10:47:22;;;;;;;16.75;15.00;;;;;;;;;;5083788;28;20844;-70
2022/11/12 10:50:02;;;;;;;11.40;10.20;;;;;;;;;;5082231;28;20020;-70
2022/11/12 10:52:27;;;;;;;13.07;10.88;;;;;;;;;;5083652;28;20039;-70
2022/11/12 10:55:13;;;;;;;26.58;23.23;;;;;;;;;;5082570;28;20024;-70
2022/11/12 10:57:38;;;;;;;18.95;16.98;;;;;;;;;;5081298;28;20027;-69
2022/11/12 11:00:13;;;;;;;13.10;10.30;;;;;;;;;;5083936;28;20020;-74
2022/11/12 11:02:46;;;;;;;14.57;13.07;;;;;;;;;;5082260;28;20067;-69
2022/11/12 11:05:30;;;;;;;17.45;15.65;;;;;;;;;;5082095;28;20112;-73
2022/11/12 11:07:56;;;;;;;19.27;16.65;;;;;;;;;;5082660;28;20024;-71
2022/11/12 11:10:34;;;;;;;18.40;16.58;;;;;;;;;;5082017;28;20028;-70
2022/11/12 11:13:15;;;;;;;17.55;16.02;;;;;;;;;;5081946;28;20063;-70
2022/11/12 11:15:55;;;;;;;10.48;9.43;;;;;;;;;;5083016;28;20024;-71
2022/11/12 11:18:21;;;;;;;8.63;7.82;;;;;;;;;;5083050;28;20043;-69
2022/11/12 11:20:48;;;;;;;17.45;15.30;;;;;;;;;;5083389;28;20019;-72
2022/11/12 11:23:22;;;;;;;16.58;12.32;;;;;;;;;;5081816;28;20031;-72
2022/11/12 11:25:50;;;;;;;18.23;15.23;;;;;;;;;;5080986;28;20020;-75
2022/11/12 11:28:15;;;;;;;15.80;13.63;;;;;;;;;;5081558;28;20019;-74
2022/11/12 11:30:49;;;;;;;16.88;14.02;;;;;;;;;;5082056;28;20034;-71
2022/11/12 11:33:40;;;;;;;15.15;12.05;;;;;;;;;;5081806;28;20028;-71
2022/11/12 11:36:20;;;;;;;14.85;13.27;;;;;;;;;;5077052;28;20074;-75
2022/11/12 11:39:00;;;;;;;16.90;13.10;;;;;;;;;;5081404;28;20082;-71
2022/11/12 11:41:29;;;;;;;15.85;12.93;;;;;;;;;;5082249;28;20040;-74
2022/11/12 11:44:03;;;;;;;15.98;13.15;;;;;;;;;;5080904;28;20028;-73
2022/11/12 11:46:28;;;;;;;12.98;11.32;;;;;;;;;;5079792;28;20426;-70
2022/11/12 11:49:03;;;;;;;10.15;9.15;;;;;;;;;;5082763;28;20027;-69
2022/11/12 11:52:00;;;;;;;9.88;8.98;;;;;;;;;;5081768;28;20462;-72
2022/11/12 11:54:38;;;;;;;17.45;14.55;;;;;;;;;;5058070;28;20094;-70
2022/11/12 11:57:09;;;;;;;12.32;10.27;;;;;;;;;;5056252;28;20041;-70
2022/11/12 11:59:53;;;;;;;9.60;8.52;;;;;;;;;;5057877;28;20033;-72
2022/11/12 12:02:18;;;;;;;7.68;6.88;;;;;;;;;;5058662;28;20036;-69
2022/11/12 12:04:43;;;;;;;8.00;6.70;;;;;;;;;;5057397;28;20463;-70
2022/11/12 12:07:09;;;;;;;7.95;7.07;;;;;;;;;;5056768;28;20666;-75
2022/11/12 12:09:34;;;;;;;10.55;7.82;;;;;;;;;;5057955;28;20053;-71
2022/11/12 12:12:18;;;;;;;7.82;7.03;;;;;;;;;;5058431;28;20044;-73
2022/11/12 12:15:03;;;;;;;7.82;7.03;;;;;;;;;;5056720;28;21260;-71
2022/11/12 12:17:37;;;;;;;8.52;7.00;;;;;;;;;;5056915;28;20048;-69
2022/11/12 12:20:12;;;;;;;8.95;8.05;;;;;;;;;;5057976;28;20648;-69
2022/11/12 12:22:40;;;;;;;8.40;7.60;;;;;;;;;;5058631;28;20035;-72
2022/11/12 12:25:11;;;;;;;7.60;6.80;;;;;;;;;;5059137;28;20115;-70
2022/11/12 12:27:43;;;;;;;10.38;7.82;;;;;;;;;;5057137;28;20364;-70
2022/11/12 12:30:14;;;;;;;9.02;7.95;;;;;;;;;;5070722;28;20039;-69
2022/11/12 12:32:43;;;;;;;13.70;12.07;;;;;;;;;;5080486;28;20031;-71
2022/11/12 12:35:27;;;;;;;10.93;9.55;;;;;;;;;;5081312;28;20038;-70
2022/11/12 12:37:52;;;;;;;23.83;19.55;;;;;;;;;;5080848;28;20023;-70
2022/11/12 12:40:34;;;;;;;16.40;13.68;;;;;;;;;;5081736;28;20028;-70
2022/11/12 12:43:05;;;;;;;12.95;11.55;;;;;;;;;;5081089;28;20037;-69
2022/11/12 12:45:43;;;;;;;13.95;12.45;;;;;;;;;;5081906;28;20062;-71
2022/11/12 12:48:14;;;;;;;10.52;9.35;;;;;;;;;;5080116;28;20016;-69
2022/11/12 12:50:41;;;;;;;9.13;8.27;;;;;;;;;;5077636;28;20024;-70
2022/11/12 12:53:17;;;;;;;14.35;11.65;;;;;;;;;;5079343;28;20016;-74
2022/11/12 12:55:43;;;;;;;9.73;8.65;;;;;;;;;;5080486;28;20028;-71
2022/11/12 12:58:27;;;;;;;9.50;7.53;;;;;;;;;;5080493;28;20026;-73
2022/11/12 13:00:59;;;;;;;9.48;8.20;;;;;;;;;;5081106;28;20027;-69
2022/11/12 13:03:43;;;;;;;9.82;7.90;;;;;;;;;;5080662;28;20104;-70
2022/11/12 13:06:28;;;;;;;9.52;8.52;;;;;;;;;;5080748;28;20070;-69
2022/11/12 13:08:53;;;;;;;10.80;9.65;;;;;;;;;;5074577;28;20040;-71
2022/11/12 13:12:20;;;;;;;14.85;13.30;;;;;;;;;;5082402;28;20032;-73
2022/11/12 13:14:43;;;;;;;13.38;12.02;;;;;;;;;;5082219;28;20127;-68
2022/11/12 13:17:10;;;;;;;15.05;12.23;;;;;;;;;;5082549;28;20052;-70
2022/11/12 13:19:37;;;;;;;12.63;10.80;;;;;;;;;;5084163;28;20037;-69
2022/11/12 13:22:18;;;;;;;9.85;8.15;;;;;;;;;;5084347;28;20418;-69
2022/11/12 13:25:01;;;;;;;7.95;7.07;;;;;;;;;;5084288;28;20108;-69
2022/11/12 13:27:39;;;;;;;8.18;7.05;;;;;;;;;;5083872;28;20036;-69
2022/11/12 13:30:13;;;;;;;11.07;9.90;;;;;;;;;;5083702;28;20024;-68
2022/11/12 13:32:45;;;;;;;13.73;12.13;;;;;;;;;;5066862;28;20078;-70
2022/11/12 13:35:10;;;;;;;18.73;15.93;;;;;;;;;;5083728;28;20035;-68
2022/11/12 13:37:44;;;;;;;14.82;13.05;;;;;;;;;;5082552;28;20102;-69
2022/11/12 13:40:14;;;;;;;11.73;10.20;;;;;;;;;;5084241;28;20022;-74
2022/11/12 13:42:49;;;;;;;13.73;11.45;;;;;;;;;;5083905;28;20024;-68
2022/11/12 13:45:19;;;;;;;20.25;14.68;;;;;;;;;;5080802;28;20031;-69
2022/11/12 13:47:44;;;;;;;14.93;13.13;;;;;;;;;;5083771;28;20028;-68
2022/11/12 13:50:14;;;;;;;19.95;16.50;;;;;;;;;;5083943;28;20039;-69
2022/11/12 13:52:40;;;;;;;18.85;14.35;;;;;;;;;;5083801;28;20079;-70
2022/11/12 13:55:11;;;;;;;14.07;11.60;;;;;;;;;;5083089;28;20032;-72
2022/11/12 13:57:37;;;;;;;34.85;23.98;;;;;;;;;;5083212;28;20020;-68
2022/11/12 14:00:20;;;;;;;26.88;23.98;;;;;;;;;;5066076;28;20451;-69
2022/11/12 14:03:00;;;;;;;15.23;13.73;;;;;;;;;;5084074;28;20024;-69
2022/11/12 14:05:26;;;;;;;19.20;17.20;;;;;;;;;;5084461;28;20426;-69
2022/11/12 14:08:10;;;;;;;32.65;28.63;;;;;;;;;;5080493;28;20028;-69
2022/11/12 14:10:53;;;;;;;21.35;18.42;;;;;;;;;;5083469;28;20118;-70
2022/11/12 14:13:28;;;;;;;15.30;13.02;;;;;;;;;;5084340;28;20043;-76
2022/11/12 14:15:56;;;;;;;19.67;17.55;;;;;;;;;;5082688;28;20558;-69
2022/11/12 14:18:31;;;;;;;15.70;14.00;;;;;;;;;;5082625;28;20048;-75
2022/11/12 14:20:56;;;;;;;15.55;14.00;;;;;;;;;;5081202;28;20058;-70
2022/11/12 14:23:23;;;;;;;18.08;14.90;;;;;;;;;;5083812;28;20431;-69
2022/11/12 14:25:55;;;;;;;14.20;12.80;;;;;;;;;;5083828;28;20084;-70
2022/11/12 14:28:28;;;;;;;11.77;10.57;;;;;;;;;;5083915;28;20036;-71
2022/11/12 14:30:53;;;;;;;22.02;17.33;;;;;;;;;;5082725;28;20440;-70
2022/11/12 14:33:21;;;;;;;15.40;13.60;;;;;;;;;;5074569;28;20028;-69
2022/11/12 14:35:47;;;;;;;130.88;105.95;;;;;;;;;;5079800;28;20024;-72
2022/11/12 14:38:30;;;;;;;25.48;22.42;;;;;;;;;;5083555;28;20021;-70
2022/11/12 14:40:56;;;;;;;20.02;17.92;;;;;;;;;;5082248;28;20370;-73
2022/11/12 14:43:28;;;;;;;22.05;19.73;;;;;;;;;;5080775;28;20028;-69
2022/11/12 14:45:54;;;;;;;15.75;14.00;;;;;;;;;;5082206;28;20024;-70
2022/11/12 14:48:20;;;;;;;14.02;12.05;;;;;;;;;;5083313;28;20016;-70
2022/11/12 14:50:47;;;;;;;16.42;13.48;;;;;;;;;;5082610;28;20499;-70
2022/11/12 14:53:20;;;;;;;20.75;17.55;;;;;;;;;;5080728;28;20124;-69